Time;durP1;ratioP1;P1;durP2;ratioP2;P2;SDS_P1;SDS_P2;PMS_P1;PMS_P2;Temp;Humidity;BMP_temperature;BMP_pressure;BME280_temperature;BME280_humidity;BME280_pressure;Samples;Min_cycle;Max_cycle;Signal;HPM_P1;HPM_P2
2021/04/05 00:01:03;;;;;;;6.60;2.20;;;10.80;48.20;;;;;;4993289;28;20109;-70
2021/04/05 00:03:29;;;;;;;4.82;1.98;;;10.80;47.70;;;;;;4993540;28;20102;-71
2021/04/05 00:05:55;;;;;;;5.60;2.07;;;10.80;48.80;;;;;;4993521;28;20031;-70
2021/04/05 00:08:21;;;;;;;5.53;2.20;;;10.80;49.90;;;;;;4993095;28;20022;-71
2021/04/05 00:10:50;;;;;;;4.07;1.80;;;10.80;48.90;;;;;;4993008;28;20045;-70
2021/04/05 00:13:20;;;;;;;6.13;1.97;;;10.70;48.90;;;;;;4993173;28;20026;-71
2021/04/05 00:15:46;;;;;;;4.47;2.00;;;10.80;48.80;;;;;;4993308;28;20479;-71
2021/04/05 00:18:16;;;;;;;8.20;2.00;;;10.70;49.60;;;;;;4993182;28;20538;-71
2021/04/05 00:21:13;;;;;;;4.65;1.90;;;10.70;50.90;;;;;;4993044;28;20026;-70
2021/04/05 00:23:40;;;;;;;7.15;2.10;;;10.60;49.20;;;;;;4981331;28;20034;-71
2021/04/05 00:26:06;;;;;;;4.53;2.17;;;10.60;50.80;;;;;;4992954;28;20069;-70
2021/04/05 00:28:32;;;;;;;9.63;2.30;;;10.60;50.50;;;;;;4992894;28;20026;-70
2021/04/05 00:30:58;;;;;;;4.55;2.15;;;10.60;50.10;;;;;;4993287;28;20387;-71
2021/04/05 00:33:23;;;;;;;6.07;2.47;;;10.50;50.50;;;;;;4992604;28;20035;-71
2021/04/05 00:35:50;;;;;;;3.47;2.20;;;10.60;50.70;;;;;;4992957;28;20030;-70
2021/04/05 00:38:16;;;;;;;4.57;2.60;;;10.50;49.80;;;;;;4996560;28;20030;-71
2021/04/05 00:40:53;;;;;;;5.70;2.40;;;10.40;49.40;;;;;;4996480;28;20026;-71
2021/04/05 00:43:19;;;;;;;4.43;2.60;;;10.40;50.60;;;;;;4996167;28;20379;-71
2021/04/05 00:45:46;;;;;;;5.70;2.33;;;10.40;51.10;;;;;;4996676;28;20486;-71
2021/04/05 00:48:13;;;;;;;4.73;2.17;;;10.40;50.50;;;;;;4996557;28;20471;-70
2021/04/05 00:50:47;;;;;;;4.27;2.60;;;10.40;51.60;;;;;;4978574;28;20054;-70
2021/04/05 00:53:14;;;;;;;6.73;2.20;;;10.30;50.20;;;;;;4996165;28;20020;-70
2021/04/05 00:55:45;;;;;;;3.67;2.20;;;10.30;49.90;;;;;;4996352;28;20057;-71
2021/04/05 00:58:11;;;;;;;5.43;2.40;;;10.30;49.90;;;;;;4994675;28;20098;-70
2021/04/05 01:00:53;;;;;;;4.37;2.10;;;10.30;50.80;;;;;;4993482;28;20054;-70
2021/04/05 01:03:23;;;;;;;4.15;2.30;;;10.20;50.60;;;;;;4993700;28;20033;-71
2021/04/05 01:05:54;;;;;;;5.00;2.00;;;10.20;51.30;;;;;;4995548;28;20026;-71
2021/04/05 01:08:21;;;;;;;3.47;2.23;;;10.20;51.50;;;;;;4978479;28;20121;-70
2021/04/05 01:10:46;;;;;;;3.80;2.13;;;10.20;50.80;;;;;;4994776;28;20121;-71
2021/04/05 01:13:13;;;;;;;7.20;2.33;;;10.00;50.60;;;;;;4995840;28;20101;-70
2021/04/05 01:15:39;;;;;;;9.37;2.57;;;10.00;52.10;;;;;;4995799;28;20460;-71
2021/04/05 01:18:06;;;;;;;6.70;2.43;;;10.00;51.20;;;;;;4995954;28;20097;-70
2021/04/05 01:20:32;;;;;;;4.03;2.47;;;9.90;51.60;;;;;;4995594;28;20032;-70
2021/04/05 01:22:59;;;;;;;5.57;2.23;;;9.90;53.20;;;;;;4995738;28;20077;-71
2021/04/05 01:25:25;;;;;;;3.80;2.30;;;9.90;52.00;;;;;;4995451;28;20030;-70
2021/04/05 01:27:52;;;;;;;5.80;2.43;;;9.80;52.20;;;;;;4995488;28;20030;-71
2021/04/05 01:30:30;;;;;;;4.97;2.20;;;9.80;52.30;;;;;;4995690;28;21122;-70
2021/04/05 01:33:06;;;;;;;7.20;2.97;;;9.70;52.30;;;;;;4995245;28;20399;-71
2021/04/05 01:35:42;;;;;;;6.53;2.27;;;9.70;52.80;;;;;;4995431;28;20030;-70
2021/04/05 01:38:09;;;;;;;4.70;2.23;;;9.70;52.00;;;;;;4995827;28;20060;-70
2021/04/05 01:40:37;;;;;;;6.40;2.23;;;9.70;52.60;;;;;;4995562;28;20029;-70
2021/04/05 01:43:03;;;;;;;4.10;2.30;;;9.60;52.60;;;;;;4995094;28;20053;-70
2021/04/05 01:45:30;;;;;;;6.97;3.13;;;9.60;51.20;;;;;;4995400;28;20030;-70
2021/04/05 01:47:56;;;;;;;5.73;2.33;;;9.60;51.70;;;;;;4994923;28;20490;-71
2021/04/05 01:50:22;;;;;;;5.07;2.73;;;9.60;51.50;;;;;;4995157;28;20074;-71
2021/04/05 01:52:47;;;;;;;8.43;2.67;;;9.50;52.40;;;;;;4995472;28;20070;-78
2021/04/05 01:55:14;;;;;;;5.83;2.70;;;9.50;53.50;;;;;;4994822;28;20073;-70
2021/04/05 01:57:39;;;;;;;6.97;2.60;;;9.40;52.80;;;;;;4994546;28;20030;-70
2021/04/05 02:00:12;;;;;;;6.20;2.67;;;9.40;51.50;;;;;;4994879;28;20057;-70
2021/04/05 02:02:37;;;;;;;5.72;3.15;;;9.30;52.00;;;;;;4995460;28;20080;-71
2021/04/05 02:05:25;;;;;;;10.33;4.07;;;9.30;52.90;;;;;;4995250;28;20109;-70
2021/04/05 02:07:51;;;;;;;6.30;3.70;;;9.30;51.50;;;;;;4992944;28;20035;-70
2021/04/05 02:10:21;;;;;;;4.93;3.23;;;9.30;51.20;;;;;;4994811;28;20049;-70
2021/04/05 02:12:48;;;;;;;7.87;3.13;;;9.30;50.80;;;;;;4994986;28;20348;-70
2021/04/05 02:15:16;;;;;;;6.03;3.50;;;9.30;51.00;;;;;;4995120;28;20019;-71
2021/04/05 02:17:46;;;;;;;6.50;2.77;;;9.20;51.30;;;;;;4995038;28;20057;-70
2021/04/05 02:20:15;;;;;;;4.53;2.27;;;9.10;52.10;;;;;;4994493;28;20030;-70
2021/04/05 02:22:43;;;;;;;3.03;2.00;;;9.10;52.00;;;;;;4994895;28;20031;-70
2021/04/05 02:25:16;;;;;;;5.27;2.00;;;9.10;52.40;;;;;;4995010;28;20037;-70
2021/04/05 02:27:43;;;;;;;4.72;2.10;;;9.00;52.00;;;;;;4994726;28;20069;-70
2021/04/05 02:30:10;;;;;;;3.53;1.90;;;9.00;52.40;;;;;;4994182;28;20031;-70
2021/04/05 02:32:39;;;;;;;3.73;1.90;;;9.00;51.80;;;;;;4993324;28;20027;-70
2021/04/05 02:35:06;;;;;;;2.97;1.70;;;9.00;52.70;;;;;;4994309;28;20022;-71
2021/04/05 02:37:32;;;;;;;6.73;2.30;;;8.90;53.60;;;;;;4994467;28;20057;-70
2021/04/05 02:40:00;;;;;;;5.33;2.23;;;8.90;53.40;;;;;;4994601;28;20053;-70
2021/04/05 02:42:26;;;;;;;5.00;2.13;;;8.90;53.00;;;;;;4994466;28;20023;-70
2021/04/05 02:44:52;;;;;;;5.73;2.43;;;8.90;53.60;;;;;;4994661;28;20026;-70
2021/04/05 02:47:19;;;;;;;7.43;2.23;;;8.90;54.30;;;;;;4994296;28;20027;-70
2021/04/05 02:49:45;;;;;;;4.03;2.20;;;8.90;53.50;;;;;;4994076;28;20483;-70
2021/04/05 02:52:11;;;;;;;6.90;2.23;;;8.90;53.40;;;;;;4993583;28;20471;-71
2021/04/05 02:54:38;;;;;;;6.50;2.40;;;8.90;54.00;;;;;;4993615;28;20084;-70
2021/04/05 02:57:04;;;;;;;6.30;2.10;;;8.80;54.60;;;;;;4994021;28;20077;-72
2021/04/05 02:59:30;;;;;;;3.30;2.20;;;8.80;54.30;;;;;;4994129;28;20525;-71
2021/04/05 03:01:56;;;;;;;7.30;2.60;;;8.80;55.00;;;;;;4994030;28;20105;-71
2021/04/05 03:04:22;;;;;;;3.97;2.40;;;8.80;54.40;;;;;;4994038;28;20475;-71
2021/04/05 03:06:49;;;;;;;5.20;2.20;;;8.80;53.80;;;;;;4993951;28;20026;-71
2021/04/05 03:09:15;;;;;;;6.50;2.13;;;8.70;55.30;;;;;;4994032;28;20030;-71
2021/04/05 03:11:44;;;;;;;6.47;2.07;;;8.70;54.10;;;;;;4994129;28;20390;-71
2021/04/05 03:14:11;;;;;;;6.20;2.00;;;8.70;54.90;;;;;;4994090;28;20049;-71
2021/04/05 03:16:39;;;;;;;7.57;2.30;;;8.60;54.60;;;;;;4994166;28;20022;-71
2021/04/05 03:19:06;;;;;;;5.33;2.23;;;8.60;54.70;;;;;;4993779;28;20026;-71
2021/04/05 03:21:33;;;;;;;5.43;2.40;;;8.60;54.60;;;;;;4993735;28;20045;-70
2021/04/05 03:24:02;;;;;;;4.27;2.03;;;8.60;53.80;;;;;;4993924;28;20026;-71
2021/04/05 03:26:28;;;;;;;3.70;2.07;;;8.60;54.00;;;;;;4993658;28;20475;-71
2021/04/05 03:28:54;;;;;;;9.87;2.40;;;8.60;54.20;;;;;;4993580;28;20030;-71
2021/04/05 03:31:23;;;;;;;8.27;2.40;;;8.60;53.90;;;;;;4993379;28;20069;-71
2021/04/05 03:34:13;;;;;;;4.70;2.17;;;8.50;53.20;;;;;;4993809;28;20035;-71
2021/04/05 03:36:46;;;;;;;5.07;2.27;;;8.50;54.10;;;;;;4993833;28;20113;-71
2021/04/05 03:39:15;;;;;;;4.82;2.38;;;8.50;53.70;;;;;;4993435;28;20026;-71
2021/04/05 03:41:58;;;;;;;3.73;2.10;;;8.40;53.90;;;;;;4993655;28;20025;-71
2021/04/05 03:44:30;;;;;;;4.05;1.88;;;8.40;55.00;;;;;;4993498;28;20034;-71
2021/04/05 03:47:01;;;;;;;5.10;1.90;;;8.30;54.50;;;;;;4993563;28;20028;-71
2021/04/05 03:49:45;;;;;;;4.67;2.37;;;8.20;55.80;;;;;;4993186;28;20273;-71
2021/04/05 03:52:27;;;;;;;5.27;2.10;;;8.20;54.90;;;;;;4993230;28;20497;-71
2021/04/05 03:54:58;;;;;;;4.33;2.07;;;8.20;54.00;;;;;;4993569;28;20101;-71
2021/04/05 03:57:28;;;;;;;3.83;2.20;;;8.20;54.30;;;;;;4993015;28;20108;-71
2021/04/05 03:59:57;;;;;;;4.37;2.43;;;8.10;54.60;;;;;;4993051;28;20069;-71
2021/04/05 04:02:32;;;;;;;5.90;2.30;;;8.10;55.20;;;;;;4993052;28;20030;-71
2021/04/05 04:05:26;;;;;;;5.67;2.00;;;8.10;54.00;;;;;;4992964;28;20038;-71
2021/04/05 04:08:02;;;;;;;4.77;2.20;;;8.10;53.20;;;;;;4993432;28;20026;-71
2021/04/05 04:10:30;;;;;;;4.03;2.47;;;8.00;53.30;;;;;;4993335;28;20035;-71
2021/04/05 04:12:58;;;;;;;4.30;2.20;;;8.00;53.80;;;;;;4997242;28;20026;-71
2021/04/05 04:15:26;;;;;;;6.90;2.23;;;8.00;54.20;;;;;;4997033;28;20030;-71
2021/04/05 04:17:52;;;;;;;4.17;2.20;;;8.00;53.80;;;;;;4997411;28;20019;-71
2021/04/05 04:20:19;;;;;;;3.77;2.00;;;7.90;54.40;;;;;;4997061;28;20026;-71
2021/04/05 04:22:46;;;;;;;4.27;2.17;;;7.90;55.20;;;;;;4997088;28;20026;-71
2021/04/05 04:25:13;;;;;;;7.27;2.00;;;7.80;56.50;;;;;;4997091;28;20142;-71
2021/04/05 04:27:44;;;;;;;4.97;2.90;;;7.80;56.20;;;;;;4996924;28;20027;-71
2021/04/05 04:30:14;;;;;;;4.80;2.00;;;7.80;55.20;;;;;;4996675;28;20018;-71
2021/04/05 04:32:40;;;;;;;6.87;2.87;;;7.70;55.40;;;;;;4996712;28;20026;-70
2021/04/05 04:35:09;;;;;;;7.23;2.27;;;7.70;55.60;;;;;;4996560;28;20029;-71
2021/04/05 04:37:39;;;;;;;6.63;2.20;;;7.70;54.90;;;;;;4996646;28;20487;-71
2021/04/05 04:40:06;;;;;;;6.40;2.40;;;7.70;56.60;;;;;;4996288;28;20029;-71
2021/04/05 04:42:32;;;;;;;6.67;2.37;;;7.60;56.70;;;;;;4996441;28;20027;-70
2021/04/05 04:44:58;;;;;;;5.20;2.37;;;7.60;57.50;;;;;;4996309;28;20145;-71
2021/04/05 04:47:24;;;;;;;4.40;2.13;;;7.60;57.00;;;;;;4996689;28;20022;-71
2021/04/05 04:49:49;;;;;;;4.10;2.30;;;7.60;56.70;;;;;;4996274;28;20113;-71
2021/04/05 04:52:15;;;;;;;4.80;2.23;;;7.60;56.50;;;;;;4996318;28;20039;-71
2021/04/05 04:54:41;;;;;;;5.27;1.90;;;7.60;57.50;;;;;;4996270;28;20098;-71
2021/04/05 04:57:07;;;;;;;8.07;2.40;;;7.60;57.30;;;;;;4996306;28;20105;-70
2021/04/05 04:59:33;;;;;;;3.13;1.70;;;7.60;57.10;;;;;;4996275;28;20062;-70
2021/04/05 05:01:59;;;;;;;4.77;2.47;;;7.60;56.40;;;;;;4996453;28;20030;-71
2021/04/05 05:04:28;;;;;;;4.27;2.30;;;7.70;56.40;;;;;;4996081;28;20031;-71
2021/04/05 05:06:57;;;;;;;3.57;2.10;;;7.70;57.40;;;;;;4996233;28;20037;-71
2021/04/05 05:09:24;;;;;;;3.60;2.20;;;7.60;57.20;;;;;;4996010;28;20517;-71
2021/04/05 05:11:50;;;;;;;3.83;2.10;;;7.60;57.10;;;;;;4995900;28;20035;-71
2021/04/05 05:14:18;;;;;;;3.63;1.97;;;7.70;56.80;;;;;;4996270;28;20026;-71
2021/04/05 05:16:45;;;;;;;3.33;2.17;;;7.70;55.50;;;;;;4996207;28;20053;-71
2021/04/05 05:19:13;;;;;;;4.53;2.23;;;7.70;55.20;;;;;;4995636;28;20109;-71
2021/04/05 05:21:53;;;;;;;8.67;2.40;;;7.70;56.00;;;;;;4995619;28;20030;-71
2021/04/05 05:24:27;;;;;;;8.23;2.40;;;7.70;56.20;;;;;;4995150;28;20098;-70
2021/04/05 05:26:55;;;;;;;7.33;2.43;;;7.70;56.20;;;;;;4996184;28;20049;-70
2021/04/05 05:29:21;;;;;;;4.33;2.60;;;7.70;55.80;;;;;;4995830;28;20037;-71
2021/04/05 05:31:47;;;;;;;6.77;2.30;;;7.70;57.10;;;;;;4995732;28;20038;-70
2021/04/05 05:34:16;;;;;;;4.37;2.00;;;7.80;57.30;;;;;;4995649;28;20026;-72
2021/04/05 05:36:43;;;;;;;4.30;2.17;;;7.80;56.20;;;;;;4995647;28;20391;-70
2021/04/05 05:39:10;;;;;;;5.63;2.20;;;7.80;56.20;;;;;;4994534;28;20049;-71
2021/04/05 05:41:54;;;;;;;5.50;2.50;;;7.90;55.80;;;;;;4993740;28;20035;-71
2021/04/05 05:44:54;;;;;;;4.47;2.10;;;7.90;55.80;;;;;;4995199;28;20023;-71
2021/04/05 05:47:26;;;;;;;5.10;2.30;;;7.90;55.90;;;;;;4960182;28;20055;-71
2021/04/05 05:50:20;;;;;;;9.25;2.53;;;7.90;55.70;;;;;;4987806;28;20054;-71
2021/04/05 05:52:56;;;;;;;4.67;2.10;;;7.90;56.50;;;;;;4981988;28;20474;-71
2021/04/05 05:56:03;;;;;;;7.70;2.33;;;7.90;56.10;;;;;;4992781;28;20509;-71
2021/04/05 05:59:01;;;;;;;4.70;2.23;;;8.00;58.00;;;;;;4959838;28;20451;-75
2021/04/05 06:01:53;;;;;;;2.43;1.70;;;8.00;58.20;;;;;;4973931;28;20019;-70
2021/04/05 06:04:47;;;;;;;2.87;2.00;;;8.10;57.90;;;;;;4973953;28;20053;-71
2021/04/05 06:07:24;;;;;;;3.90;2.00;;;8.20;58.40;;;;;;4986602;28;20027;-71
2021/04/05 06:10:04;;;;;;;2.87;1.73;;;8.20;57.90;;;;;;4993063;28;20045;-71
2021/04/05 06:12:58;;;;;;;5.30;2.20;;;8.30;58.10;;;;;;4992003;28;20042;-79
2021/04/05 06:15:29;;;;;;;8.53;2.40;;;8.30;57.20;;;;;;4993067;28;20101;-70
2021/04/05 06:18:16;;;;;;;5.30;2.10;;;8.40;57.50;;;;;;4993524;28;20034;-70
2021/04/05 06:21:04;;;;;;;3.83;2.20;;;8.40;56.40;;;;;;4992182;28;20026;-77
2021/04/05 06:23:58;;;;;;;9.97;2.50;;;8.50;55.40;;;;;;4994911;28;20026;-78
2021/04/05 06:26:42;;;;;;;4.90;2.97;;;8.50;55.20;;;;;;4991784;28;20034;-71
2021/04/05 06:29:33;;;;;;;6.50;2.37;;;8.50;55.50;;;;;;4994150;28;20434;-70
2021/04/05 06:32:29;;;;;;;6.13;2.43;;;8.60;56.10;;;;;;4992928;28;20043;-70
2021/04/05 06:35:17;;;;;;;8.07;2.80;;;8.60;56.70;;;;;;4993865;28;20082;-70
2021/04/05 06:37:45;;;;;;;6.03;3.10;;;8.70;56.80;;;;;;4994670;28;20072;-70
2021/04/05 06:40:18;;;;;;;6.43;3.40;;;8.70;56.60;;;;;;4994416;28;20026;-70
2021/04/05 06:43:12;;;;;;;12.07;3.30;;;8.70;56.90;;;;;;4994814;28;20037;-70
2021/04/05 06:45:50;;;;;;;10.73;3.50;;;8.80;56.40;;;;;;4994134;28;20032;-70
2021/04/05 06:48:35;;;;;;;5.57;2.83;;;8.80;55.60;;;;;;4994191;28;20101;-70
2021/04/05 06:51:20;;;;;;;7.27;3.40;;;8.80;56.10;;;;;;4965013;28;20109;-72
2021/04/05 06:54:13;;;;;;;6.73;3.73;;;8.90;55.90;;;;;;4994283;28;20117;-74
2021/04/05 06:57:06;;;;;;;7.90;3.30;;;9.00;55.70;;;;;;4994102;28;20030;-70
2021/04/05 07:00:05;;;;;;;7.47;3.30;;;9.00;55.90;;;;;;4994033;28;20027;-70
2021/04/05 07:02:52;;;;;;;8.50;3.20;;;9.10;56.30;;;;;;4992168;28;20022;-74
2021/04/05 07:05:29;;;;;;;5.17;2.50;;;9.10;57.10;;;;;;4973316;28;20039;-80
2021/04/05 07:08:01;;;;;;;7.43;3.50;;;9.20;57.10;;;;;;4989156;28;20023;-71
2021/04/05 07:10:38;;;;;;;4.53;2.75;;;9.20;56.60;;;;;;4993459;28;20533;-79
2021/04/05 07:13:07;;;;;;;5.70;2.63;;;9.30;56.50;;;;;;4990623;28;20041;-79
2021/04/05 07:15:53;;;;;;;9.50;2.70;;;9.40;56.90;;;;;;4999489;28;20027;-78
2021/04/05 07:18:41;;;;;;;6.37;2.60;;;9.40;56.00;;;;;;4973096;28;20436;-72
2021/04/05 07:21:43;;;;;;;6.23;2.37;;;9.50;55.70;;;;;;4980471;28;20375;-79
2021/04/05 07:24:39;;;;;;;4.50;2.40;;;9.60;55.50;;;;;;4989477;28;20018;-77
2021/04/05 07:27:11;;;;;;;5.20;2.50;;;9.60;55.20;;;;;;4990889;28;20061;-79
2021/04/05 07:30:17;;;;;;;5.32;2.72;;;9.70;55.60;;;;;;4991953;28;20033;-81
2021/04/05 07:33:05;;;;;;;5.63;2.63;;;9.70;55.30;;;;;;4973365;28;20053;-71
2021/04/05 07:36:06;;;;;;;5.07;2.47;;;9.80;54.70;;;;;;4978567;28;20030;-72
2021/04/05 07:38:57;;;;;;;5.13;2.83;;;9.80;54.20;;;;;;4992092;28;20026;-71
2021/04/05 07:41:45;;;;;;;5.67;2.80;;;9.90;54.60;;;;;;4973161;28;20027;-79
2021/04/05 07:44:17;;;;;;;10.30;2.90;;;9.90;54.30;;;;;;4987387;28;20038;-70
2021/04/05 07:46:48;;;;;;;5.30;2.87;;;10.00;53.70;;;;;;4991101;28;20498;-72
2021/04/05 07:49:20;;;;;;;7.03;3.13;;;10.00;53.50;;;;;;4989925;28;20046;-71
2021/04/05 07:51:56;;;;;;;8.17;4.27;;;10.10;54.30;;;;;;4988061;28;20402;-71
2021/04/05 07:54:26;;;;;;;7.43;4.27;;;10.10;54.00;;;;;;4992141;28;20018;-71
2021/04/05 07:56:54;;;;;;;8.57;4.70;;;10.10;53.20;;;;;;4993601;28;20033;-70
2021/04/05 07:59:48;;;;;;;5.57;2.30;;;10.20;53.50;;;;;;4993614;28;20033;-71
2021/04/05 08:02:28;;;;;;;8.77;3.40;;;10.30;51.90;;;;;;4992125;28;20129;-70
2021/04/05 08:05:14;;;;;;;5.23;3.40;;;10.30;51.20;;;;;;4992598;28;20026;-74
2021/04/05 08:08:17;;;;;;;5.40;2.77;;;10.30;51.10;;;;;;4986627;28;20023;-72
2021/04/05 08:11:02;;;;;;;4.50;2.83;;;10.40;51.10;;;;;;4993249;28;20038;-70
2021/04/05 08:13:34;;;;;;;6.70;3.57;;;10.50;51.20;;;;;;4973889;28;20033;-73
2021/04/05 08:16:27;;;;;;;7.55;3.45;;;10.50;51.90;;;;;;4980714;28;20035;-73
2021/04/05 08:19:05;;;;;;;9.23;2.70;;;10.60;51.70;;;;;;4992616;28;20022;-73
2021/04/05 08:21:37;;;;;;;4.23;2.60;;;10.70;51.00;;;;;;4992894;28;20356;-74
2021/04/05 08:24:37;;;;;;;6.63;3.28;;;10.80;51.10;;;;;;4973914;28;20045;-69
2021/04/05 08:27:38;;;;;;;5.53;2.50;;;10.90;49.80;;;;;;4989930;28;20022;-69
2021/04/05 08:30:21;;;;;;;4.57;2.73;;;10.90;49.60;;;;;;4991072;28;20106;-69
2021/04/05 08:33:26;;;;;;;6.22;2.58;;;11.00;50.00;;;;;;4992796;28;20046;-75
2021/04/05 08:36:20;;;;;;;5.63;2.30;;;11.20;47.60;;;;;;4992976;28;20023;-69
2021/04/05 08:38:56;;;;;;;5.43;2.00;;;11.20;48.70;;;;;;4962259;28;20056;-74
2021/04/05 08:41:43;;;;;;;4.60;2.27;;;11.30;49.10;;;;;;4987225;28;20033;-69
2021/04/05 08:44:25;;;;;;;7.80;2.43;;;11.40;47.50;;;;;;4991654;28;20441;-69
2021/04/05 08:46:55;;;;;;;7.83;5.30;;;11.40;47.60;;;;;;4990181;28;20034;-69
2021/04/05 08:49:24;;;;;;;13.20;8.70;;;11.50;49.20;;;;;;4991818;28;20038;-70
2021/04/05 08:51:54;;;;;;;6.25;2.78;;;11.60;48.20;;;;;;4985164;28;20364;-70
2021/04/05 08:54:26;;;;;;;9.88;4.82;;;11.70;44.90;;;;;;4990023;28;20080;-69
2021/04/05 08:56:57;;;;;;;6.75;3.72;;;11.80;46.50;;;;;;4992196;28;20113;-69
2021/04/05 08:59:29;;;;;;;3.15;1.75;;;11.90;46.40;;;;;;4993901;28;20485;-69
2021/04/05 09:02:19;;;;;;;5.75;1.75;;;12.00;44.90;;;;;;4994829;28;20105;-69
2021/04/05 09:04:47;;;;;;;9.27;4.88;;;12.10;45.80;;;;;;4995252;28;20065;-69
2021/04/05 09:07:41;;;;;;;2.28;1.60;;;12.20;45.40;;;;;;4995289;28;20036;-69
2021/04/05 09:10:08;;;;;;;4.90;1.70;;;12.20;44.80;;;;;;4988364;28;20030;-69
2021/04/05 09:12:36;;;;;;;6.88;1.80;;;12.30;44.20;;;;;;4996193;28;20026;-69
2021/04/05 09:15:40;;;;;;;5.53;2.38;;;12.30;43.90;;;;;;4999117;28;20030;-69
2021/04/05 09:18:08;;;;;;;9.20;4.45;;;12.30;45.10;;;;;;4991258;28;20035;-69
2021/04/05 09:20:59;;;;;;;8.05;2.25;;;12.40;44.60;;;;;;4993673;28;20030;-68
2021/04/05 09:23:55;;;;;;;4.63;1.95;;;12.40;44.70;;;;;;4994320;28;20395;-69
2021/04/05 09:26:39;;;;;;;4.32;1.90;;;12.40;45.40;;;;;;4936438;28;20039;-70
2021/04/05 09:29:40;;;;;;;6.65;2.58;;;12.40;46.40;;;;;;4986069;28;20440;-68
2021/04/05 09:32:24;;;;;;;6.53;3.90;;;12.50;46.20;;;;;;4958522;28;20104;-69
2021/04/05 09:34:58;;;;;;;8.40;2.70;;;12.50;45.20;;;;;;4995632;28;20027;-69
2021/04/05 09:37:43;;;;;;;6.25;2.33;;;12.60;45.40;;;;;;4996081;28;20034;-69
2021/04/05 09:40:14;;;;;;;4.63;2.50;;;12.50;43.90;;;;;;4995981;28;20034;-69
2021/04/05 09:43:01;;;;;;;4.50;2.42;;;12.50;45.00;;;;;;4995942;28;20110;-68
2021/04/05 09:45:51;;;;;;;3.78;2.63;;;12.60;44.40;;;;;;4995786;28;20022;-69
2021/04/05 09:48:23;;;;;;;6.70;2.95;;;12.70;44.50;;;;;;4995608;28;20050;-69
2021/04/05 09:51:20;;;;;;;8.20;3.03;;;12.60;43.40;;;;;;4995133;28;20100;-68
2021/04/05 09:54:11;;;;;;;6.20;2.47;;;12.70;43.40;;;;;;4984730;28;20046;-69
2021/04/05 09:56:44;;;;;;;6.93;2.95;;;12.70;43.50;;;;;;4995551;28;20106;-69
2021/04/05 09:59:12;;;;;;;4.20;2.35;;;12.70;43.60;;;;;;4995113;28;20156;-69
2021/04/05 10:01:39;;;;;;;4.43;2.47;;;12.70;44.00;;;;;;4995560;28;20109;-68
2021/04/05 10:04:12;;;;;;;5.18;3.25;;;12.70;43.40;;;;;;4995106;28;20030;-69
2021/04/05 10:06:38;;;;;;;4.30;2.90;;;12.80;44.00;;;;;;4995383;28;20033;-69
2021/04/05 10:09:06;;;;;;;5.60;2.90;;;12.80;43.00;;;;;;4994774;28;20029;-69
2021/04/05 10:11:38;;;;;;;5.07;2.50;;;12.80;43.20;;;;;;4995200;28;20506;-67
2021/04/05 10:14:07;;;;;;;3.63;2.43;;;12.80;43.60;;;;;;4995534;28;20379;-68
2021/04/05 10:16:36;;;;;;;5.68;3.22;;;13.00;44.50;;;;;;4995181;28;20780;-68
2021/04/05 10:19:12;;;;;;;2.80;2.00;;;13.20;44.10;;;;;;4995198;28;20015;-68
2021/04/05 10:21:47;;;;;;;6.03;4.75;;;13.40;42.60;;;;;;4994912;28;20054;-69
2021/04/05 10:24:14;;;;;;;8.68;2.40;;;13.50;41.30;;;;;;4993205;28;20030;-69
2021/04/05 10:26:42;;;;;;;8.93;2.67;;;13.50;40.50;;;;;;4992958;28;20033;-68
2021/04/05 10:29:14;;;;;;;9.80;5.50;;;13.50;41.10;;;;;;4992498;28;20052;-69
2021/04/05 10:31:41;;;;;;;7.65;4.10;;;13.40;42.30;;;;;;4993710;28;20038;-69
2021/04/05 10:34:10;;;;;;;4.25;2.47;;;13.40;42.30;;;;;;4991994;28;20387;-69
2021/04/05 10:36:44;;;;;;;4.47;2.97;;;13.30;42.10;;;;;;4994836;28;20141;-68
2021/04/05 10:39:10;;;;;;;7.97;3.70;;;13.40;42.40;;;;;;4990945;28;20015;-69
2021/04/05 10:41:44;;;;;;;8.43;4.75;;;13.30;43.80;;;;;;4993612;28;20034;-69
2021/04/05 10:44:14;;;;;;;10.80;2.60;;;13.30;43.60;;;;;;4992799;28;20026;-69
2021/04/05 10:46:42;;;;;;;4.45;2.45;;;13.30;42.60;;;;;;4992883;28;20084;-68
2021/04/05 10:49:10;;;;;;;11.88;6.28;;;13.20;42.80;;;;;;4991371;28;20046;-68
2021/04/05 10:51:46;;;;;;;7.93;4.50;;;13.10;42.50;;;;;;4993968;28;20098;-69
2021/04/05 10:54:26;;;;;;;5.63;3.70;;;13.10;41.80;;;;;;4991974;28;20027;-69
2021/04/05 10:56:59;;;;;;;7.22;3.33;;;13.00;43.20;;;;;;4993977;28;20014;-69
2021/04/05 10:59:33;;;;;;;6.70;3.45;;;12.90;44.90;;;;;;4994018;28;20043;-69
2021/04/05 11:02:10;;;;;;;5.13;3.08;;;12.90;45.90;;;;;;4992939;28;20034;-69
2021/04/05 11:04:39;;;;;;;5.38;2.95;;;12.90;48.10;;;;;;4991588;28;20483;-69
2021/04/05 11:07:08;;;;;;;6.93;3.55;;;12.90;47.60;;;;;;4991978;28;20030;-69
2021/04/05 11:09:42;;;;;;;5.55;3.25;;;12.90;48.10;;;;;;4991503;28;20251;-68
2021/04/05 11:12:11;;;;;;;5.57;3.50;;;12.80;47.90;;;;;;4994022;28;20053;-69
2021/04/05 11:14:39;;;;;;;7.88;3.05;;;12.80;48.50;;;;;;4994110;28;20383;-68
2021/04/05 11:17:06;;;;;;;8.10;3.20;;;12.70;47.90;;;;;;4994308;28;20435;-69
2021/04/05 11:19:35;;;;;;;3.67;2.10;;;12.80;48.40;;;;;;4992607;28;20034;-68
2021/04/05 11:22:03;;;;;;;7.95;3.00;;;12.80;48.40;;;;;;4993012;28;20080;-68
2021/04/05 11:24:36;;;;;;;6.45;3.00;;;12.90;49.90;;;;;;4992858;28;20061;-69
2021/04/05 11:27:08;;;;;;;5.97;2.88;;;12.90;46.80;;;;;;4994024;28;20105;-69
2021/04/05 11:29:37;;;;;;;7.53;3.00;;;13.00;48.20;;;;;;4992533;28;20141;-69
2021/04/05 11:32:03;;;;;;;4.60;2.88;;;13.10;48.30;;;;;;4991848;28;20042;-69
2021/04/05 11:34:34;;;;;;;6.45;3.00;;;13.10;47.80;;;;;;4988773;28;20065;-69
2021/04/05 11:37:03;;;;;;;3.65;2.63;;;13.10;45.90;;;;;;4992184;28;20391;-69
2021/04/05 11:39:34;;;;;;;5.43;2.85;;;13.10;46.30;;;;;;4991778;28;20031;-69
2021/04/05 11:42:02;;;;;;;3.97;2.42;;;13.10;45.50;;;;;;4992072;28;20034;-69
2021/04/05 11:44:37;;;;;;;5.25;2.58;;;13.10;45.80;;;;;;4992903;28;20026;-69
2021/04/05 11:47:06;;;;;;;5.43;2.50;;;13.10;46.50;;;;;;4989282;28;20022;-69
2021/04/05 11:49:33;;;;;;;4.07;2.15;;;13.20;47.20;;;;;;4988793;28;20490;-69
2021/04/05 11:52:07;;;;;;;5.93;2.17;;;13.30;47.40;;;;;;4990467;28;20035;-69
2021/04/05 11:54:41;;;;;;;4.40;2.40;;;13.50;45.80;;;;;;4993544;28;20023;-68
2021/04/05 11:57:11;;;;;;;4.55;2.20;;;13.70;45.50;;;;;;4986648;28;20030;-70
2021/04/05 11:59:47;;;;;;;7.28;2.10;;;13.70;46.30;;;;;;4988766;28;20033;-70
2021/04/05 12:02:33;;;;;;;3.35;2.08;;;13.90;44.90;;;;;;4991033;28;20034;-69
2021/04/05 12:05:11;;;;;;;5.55;2.33;;;14.00;44.50;;;;;;4991727;28;20080;-69
2021/04/05 12:07:43;;;;;;;5.22;2.05;;;14.10;43.90;;;;;;4991167;28;20490;-69
2021/04/05 12:10:18;;;;;;;3.22;2.15;;;14.10;44.40;;;;;;4987639;28;20178;-69
2021/04/05 12:12:52;;;;;;;4.53;2.20;;;14.10;44.80;;;;;;4989506;28;20088;-69
2021/04/05 12:15:20;;;;;;;3.22;1.88;;;14.10;44.00;;;;;;4990666;28;20550;-69
2021/04/05 12:17:52;;;;;;;5.20;2.30;;;14.00;44.40;;;;;;4993104;28;20076;-69
2021/04/05 12:20:23;;;;;;;3.17;1.95;;;14.00;44.80;;;;;;4992526;28;20019;-69
2021/04/05 12:23:06;;;;;;;5.72;1.98;;;14.00;45.50;;;;;;4974872;28;20037;-69
2021/04/05 12:25:37;;;;;;;3.92;2.03;;;14.00;44.60;;;;;;4974077;28;20507;-69
2021/04/05 12:28:07;;;;;;;2.93;1.80;;;14.00;44.20;;;;;;4987435;28;20030;-69
2021/04/05 12:30:34;;;;;;;4.78;2.22;;;14.00;44.00;;;;;;4992856;28;20489;-69
2021/04/05 12:33:01;;;;;;;5.72;1.80;;;14.00;44.70;;;;;;4995552;28;20034;-69
2021/04/05 12:35:27;;;;;;;3.03;1.80;;;13.90;44.00;;;;;;4996425;28;20076;-69
2021/04/05 12:38:04;;;;;;;3.97;2.08;;;14.00;44.30;;;;;;4997123;28;20029;-69
2021/04/05 12:40:34;;;;;;;5.82;2.08;;;14.00;45.40;;;;;;4993566;28;20010;-69
2021/04/05 12:43:12;;;;;;;3.72;1.77;;;14.10;44.00;;;;;;4994211;28;20076;-70
2021/04/05 12:45:40;;;;;;;4.72;1.63;;;14.10;44.10;;;;;;4996898;28;20023;-69
2021/04/05 12:48:09;;;;;;;4.55;1.90;;;14.10;44.50;;;;;;4996807;28;20026;-69
2021/04/05 12:50:36;;;;;;;3.20;2.13;;;14.10;43.10;;;;;;4996280;28;20495;-70
2021/04/05 12:53:08;;;;;;;4.65;2.20;;;14.00;44.40;;;;;;4996523;28;20100;-69
2021/04/05 12:55:39;;;;;;;7.05;2.22;;;14.10;44.50;;;;;;4997150;28;20041;-69
2021/04/05 12:58:06;;;;;;;5.10;1.85;;;14.10;44.10;;;;;;4996729;28;20479;-69
2021/04/05 13:00:38;;;;;;;6.43;1.80;;;14.20;44.50;;;;;;4996620;28;20022;-69
2021/04/05 13:03:43;;;;;;;7.63;1.90;;;14.40;44.80;;;;;;4996456;28;20035;-69
2021/04/05 13:06:13;;;;;;;2.83;1.70;;;14.70;44.70;;;;;;4898517;29;20037;-70
2021/04/05 13:09:00;;;;;;;3.72;1.70;;;14.80;43.60;;;;;;4895928;29;20037;-70
2021/04/05 13:11:46;;;;;;;2.40;1.70;;;14.90;42.70;;;;;;4961128;28;20081;-69
2021/04/05 13:14:21;;;;;;;4.20;1.80;;;14.90;42.50;;;;;;4995498;28;20019;-69
2021/04/05 13:16:59;;;;;;;5.13;2.00;;;14.90;43.00;;;;;;4995704;28;20026;-70
2021/04/05 13:19:33;;;;;;;2.92;1.60;;;14.90;41.50;;;;;;4993315;28;20019;-71
2021/04/05 13:22:00;;;;;;;7.15;1.60;;;14.90;42.80;;;;;;4996838;28;20034;-69
2021/04/05 13:24:32;;;;;;;2.78;1.50;;;14.90;43.50;;;;;;5002560;28;20513;-69
2021/04/05 13:27:03;;;;;;;;;;;15.00;43.20;;;;;;4995652;28;20403;-70
2021/04/05 13:29:33;;;;;;;3.28;1.67;;;15.10;43.20;;;;;;4995039;28;19912;-70